首页
METAR-TAF:

METAR-TAF

机场 :

Cordova, 阿拉斯加州, 美国

纬度: 60-29-30N, 经度: 145-28-40W, 海拔: 13米

当前天气观测

该预报发布于47分钟前的16:53 UTC
静风
温度 17°C
湿度 77%
气压 1020 hPa
能見度: 16.1公里
少量云层高于200英尺
阴天层高于9500英尺

METAR: PACV 211653Z 00000KT 10SM FEW002 OVC095 17/13 A3013 RMK AO2 SLP204 T01670133 $

时间: 09:40 (17:40 UTC)

预报

该预报发布于1小时和14分钟前的16:26 UTC
预报有效从21日的 16点(UTC)到 22日的 12点(UTC)
风速4节,风向多变
能見度: 10公里
散云层高于200英尺
阴天层高于9000英尺
附近有阵雨
短暂存在
从 21日的 16点(UTC)到 21日的 18点(UTC)
多云层高于200英尺

TAF: PACV 211626Z 2116/2212 VRB04KT P6SM VCSH SCT002 OVC090 TEMPO 2116/2118 BKN002

超过4000个机场的气象观测和天气预报(METAR&TAF报告)。

可查询的气象台以黄色和红色小点在地图上表示。

将鼠标移到小点上方,可查看气象台名称。

然后点击查看天气观测和预报。

如需切换地图:点击带黑十字的绿色按钮放大地图;点击带横线的绿色按钮缩小地图;或者点击绿色箭头查看邻近地区的地图。


METAR-TAF: